Time;durP1;ratioP1;P1;durP2;ratioP2;P2;SDS_P1;SDS_P2;PMS_P1;PMS_P2;Temp;Humidity;BMP_temperature;BMP_pressure;BME280_temperature;BME280_humidity;BME280_pressure;Samples;Min_cycle;Max_cycle;Signal;HPM_P1;HPM_P2
2023/06/24 00:01:33;;;;;;;1.80;1.70;;;14.80;64.00;;;;;;5049732;28;20045;-60
2023/06/24 00:03:59;;;;;;;1.27;1.27;;;14.80;66.60;;;;;;5048949;28;20479;-60
2023/06/24 00:06:25;;;;;;;1.70;1.60;;;14.80;72.80;;;;;;5050213;28;20087;-61
2023/06/24 00:09:00;;;;;;;6.25;1.80;;;14.70;71.10;;;;;;5050306;28;20264;-60
2023/06/24 00:11:26;;;;;;;2.08;1.88;;;14.70;72.90;;;;;;5049960;28;20021;-60
2023/06/24 00:13:52;;;;;;;1.98;1.88;;;14.70;73.40;;;;;;5049963;28;20032;-60
2023/06/24 00:16:17;;;;;;;1.75;1.63;;;14.70;74.70;;;;;;5049726;28;20033;-60
2023/06/24 00:18:43;;;;;;;2.13;1.60;;;14.70;74.10;;;;;;5049663;28;20511;-59
2023/06/24 00:21:08;;;;;;;2.50;2.15;;;14.70;70.40;;;;;;5049939;28;20526;-59
2023/06/24 00:23:34;;;;;;;3.03;2.40;;;14.70;73.60;;;;;;5049696;28;20021;-60
2023/06/24 00:26:01;;;;;;;2.97;2.70;;;14.70;73.10;;;;;;5050060;28;20089;-59
2023/06/24 00:28:26;;;;;;;2.65;2.45;;;14.60;67.80;;;;;;5049621;28;20391;-60
2023/06/24 00:30:53;;;;;;;3.33;3.05;;;14.60;71.00;;;;;;5049877;28;20029;-60
2023/06/24 00:33:21;;;;;;;4.03;2.65;;;14.70;74.20;;;;;;5049675;28;20706;-59
2023/06/24 00:35:47;;;;;;;2.67;2.30;;;14.70;71.80;;;;;;5049888;28;20017;-60
2023/06/24 00:38:13;;;;;;;5.22;2.80;;;14.70;73.30;;;;;;5045617;28;20040;-60
2023/06/24 00:40:39;;;;;;;3.13;2.45;;;14.70;74.00;;;;;;5049903;28;20029;-60
2023/06/24 00:43:06;;;;;;;6.43;2.85;;;14.70;75.90;;;;;;5051835;28;20029;-60
2023/06/24 00:45:31;;;;;;;4.20;2.70;;;14.70;72.80;;;;;;5053274;28;20029;-59
2023/06/24 00:51:40;;;;;;;3.13;2.60;;;14.70;69.40;;;;;;5033692;28;20430;-60
2023/06/24 00:54:06;;;;;;;2.63;2.42;;;14.70;71.60;;;;;;5252065;22;20141;-58
2023/06/24 00:56:34;;;;;;;2.60;2.40;;;14.70;70.10;;;;;;5013905;28;20025;-60
2023/06/24 00:59:03;;;;;;;2.65;2.45;;;14.70;74.10;;;;;;5013362;28;20025;-60
2023/06/24 01:01:33;;;;;;;2.38;2.05;;;14.70;75.00;;;;;;5013629;28;20030;-60
2023/06/24 01:04:00;;;;;;;2.63;2.42;;;14.70;75.30;;;;;;5013574;28;20422;-60
2023/06/24 01:06:29;;;;;;;2.97;2.78;;;14.70;74.30;;;;;;5013316;28;20033;-60
2023/06/24 01:08:59;;;;;;;3.22;2.15;;;14.70;73.70;;;;;;5013134;28;20391;-61
2023/06/24 01:11:26;;;;;;;2.40;2.20;;;14.70;78.90;;;;;;5013240;28;20013;-60
2023/06/24 01:13:53;;;;;;;2.60;2.08;;;14.80;80.50;;;;;;5013388;28;20018;-61
2023/06/24 01:16:45;;;;;;;3.33;2.50;;;14.70;81.60;;;;;;5013050;28;20026;-61
2023/06/24 01:19:38;;;;;;;2.78;2.47;;;14.70;75.70;;;;;;5013243;28;20026;-61
2023/06/24 01:22:06;;;;;;;3.33;2.77;;;14.70;75.10;;;;;;5013842;28;20029;-60
2023/06/24 01:24:53;;;;;;;2.70;2.47;;;14.80;73.70;;;;;;5013494;28;20040;-60
2023/06/24 01:27:41;;;;;;;2.55;2.17;;;14.60;70.00;;;;;;5012447;28;20034;-60
2023/06/24 01:30:41;;;;;;;2.90;2.67;;;14.80;72.20;;;;;;5013138;28;20454;-61
2023/06/24 01:33:14;;;;;;;3.50;3.20;;;14.70;72.60;;;;;;5030381;28;20069;-60
2023/06/24 01:35:42;;;;;;;4.88;3.25;;;14.70;72.20;;;;;;5032729;28;20056;-61
2023/06/24 01:38:18;;;;;;;3.05;2.78;;;14.70;68.10;;;;;;5015429;28;20030;-61
2023/06/24 01:40:45;;;;;;;3.15;2.70;;;14.70;73.10;;;;;;5012950;28;20076;-60
2023/06/24 01:43:13;;;;;;;3.15;2.85;;;14.70;75.90;;;;;;5012849;28;20532;-61
2023/06/24 01:45:52;;;;;;;3.15;2.83;;;14.70;77.40;;;;;;5012741;28;20026;-61
2023/06/24 01:48:22;;;;;;;2.83;2.63;;;14.70;72.50;;;;;;5012184;28;20034;-61
2023/06/24 01:50:58;;;;;;;4.65;3.00;;;14.80;74.50;;;;;;5012254;28;20022;-60
2023/06/24 01:53:26;;;;;;;3.10;2.83;;;14.70;71.20;;;;;;5012094;28;20457;-60
2023/06/24 01:55:54;;;;;;;3.53;3.22;;;14.70;75.50;;;;;;5012602;28;20508;-60
2023/06/24 01:58:22;;;;;;;6.13;3.30;;;14.70;75.30;;;;;;5012216;28;20041;-61
2023/06/24 02:00:49;;;;;;;3.78;3.42;;;14.70;75.80;;;;;;5012471;28;20100;-60
2023/06/24 02:03:15;;;;;;;3.38;3.08;;;14.70;77.40;;;;;;5012476;28;20492;-60
2023/06/24 02:05:42;;;;;;;3.45;3.13;;;14.70;78.40;;;;;;5012530;28;20036;-61
2023/06/24 02:08:09;;;;;;;4.85;2.97;;;14.70;81.00;;;;;;5011885;28;20025;-60
2023/06/24 02:10:39;;;;;;;3.92;3.58;;;14.70;78.70;;;;;;5012363;28;20026;-60
2023/06/24 02:13:07;;;;;;;3.80;3.50;;;14.50;78.70;;;;;;5012134;28;20053;-60
2023/06/24 02:15:34;;;;;;;5.30;4.63;;;14.50;77.40;;;;;;5012256;28;20014;-61
2023/06/24 02:18:02;;;;;;;5.85;4.20;;;14.50;77.80;;;;;;5012004;28;20030;-60
2023/06/24 02:20:30;;;;;;;5.28;4.78;;;14.50;76.50;;;;;;5010596;28;20025;-61
2023/06/24 02:22:58;;;;;;;5.72;5.20;;;14.40;74.60;;;;;;5012193;28;20032;-60
2023/06/24 02:25:25;;;;;;;5.90;4.72;;;14.30;77.00;;;;;;5011866;28;20021;-60
2023/06/24 02:27:53;;;;;;;5.63;4.85;;;14.40;81.30;;;;;;5011786;28;20030;-61
2023/06/24 02:30:25;;;;;;;6.47;4.97;;;14.50;78.30;;;;;;5011855;28;20022;-61
2023/06/24 02:32:51;;;;;;;6.25;5.05;;;14.40;72.70;;;;;;5011793;28;20483;-60
2023/06/24 02:35:17;;;;;;;5.20;4.70;;;14.40;78.50;;;;;;5011834;28;20109;-61
2023/06/24 02:37:43;;;;;;;5.75;5.25;;;14.40;78.00;;;;;;5011693;28;20443;-61
2023/06/24 02:40:10;;;;;;;5.60;5.10;;;14.40;78.70;;;;;;5011649;28;20030;-60
2023/06/24 02:42:35;;;;;;;5.55;4.95;;;14.40;80.60;;;;;;5011805;28;20381;-60
2023/06/24 02:45:03;;;;;;;6.10;5.00;;;14.40;80.00;;;;;;5011816;28;20014;-60
2023/06/24 02:47:30;;;;;;;5.90;5.28;;;14.40;80.70;;;;;;5010954;28;20128;-61
2023/06/24 02:49:57;;;;;;;6.28;5.68;;;14.30;78.80;;;;;;5010715;28;20466;-61
2023/06/24 02:52:23;;;;;;;5.75;5.22;;;14.30;82.00;;;;;;5011003;28;20030;-61
2023/06/24 02:54:49;;;;;;;5.03;4.55;;;14.30;85.10;;;;;;5011312;28;20046;-61
2023/06/24 02:57:15;;;;;;;7.47;5.57;;;14.30;89.10;;;;;;5011143;28;20503;-60
2023/06/24 02:59:41;;;;;;;6.93;4.63;;;14.30;85.70;;;;;;5011457;28;20033;-61
2023/06/24 03:02:07;;;;;;;6.45;5.85;;;14.30;88.70;;;;;;5011357;28;20480;-60
2023/06/24 03:04:34;;;;;;;9.77;6.65;;;14.30;90.40;;;;;;5009501;28;20061;-60
2023/06/24 03:07:00;;;;;;;5.60;5.10;;;14.20;88.30;;;;;;5010834;28;20428;-61
2023/06/24 03:09:34;;;;;;;6.10;5.45;;;14.20;88.30;;;;;;5009786;28;20034;-61
2023/06/24 03:11:59;;;;;;;8.43;5.63;;;14.30;89.40;;;;;;5011115;28;20022;-61
2023/06/24 03:14:25;;;;;;;6.35;5.75;;;14.40;87.90;;;;;;5009710;28;20049;-61
2023/06/24 03:16:50;;;;;;;6.55;5.60;;;14.40;86.10;;;;;;5010935;28;20022;-60
2023/06/24 03:19:16;;;;;;;6.70;6.03;;;14.40;86.20;;;;;;5010870;28;20029;-61
2023/06/24 03:21:42;;;;;;;7.25;5.70;;;14.50;88.00;;;;;;5009781;28;20033;-60
2023/06/24 03:24:07;;;;;;;11.55;6.05;;;14.50;86.30;;;;;;5010726;28;20025;-60
2023/06/24 03:26:35;;;;;;;5.85;5.28;;;14.50;85.00;;;;;;5010891;28;20080;-61
2023/06/24 03:29:01;;;;;;;11.30;6.05;;;14.50;86.80;;;;;;5010868;28;20065;-60
2023/06/24 03:31:27;;;;;;;6.60;6.00;;;14.60;87.00;;;;;;5011070;28;20046;-61
2023/06/24 03:33:53;;;;;;;9.65;5.80;;;14.60;86.90;;;;;;5010873;28;20104;-60
2023/06/24 03:36:19;;;;;;;6.78;5.70;;;14.50;84.00;;;;;;5010575;28;20041;-61
2023/06/24 03:38:45;;;;;;;7.88;6.97;;;14.40;86.50;;;;;;5010714;28;20116;-60
2023/06/24 03:41:11;;;;;;;8.35;6.63;;;14.40;90.10;;;;;;5010506;28;20100;-60
2023/06/24 03:43:36;;;;;;;7.93;7.13;;;14.40;87.70;;;;;;5017000;28;20037;-60
2023/06/24 03:46:02;;;;;;;8.18;7.30;;;14.40;90.10;;;;;;5030720;28;20025;-61
2023/06/24 03:48:28;;;;;;;6.82;6.07;;;14.40;91.00;;;;;;5024904;28;20056;-60
2023/06/24 03:50:54;;;;;;;10.68;7.22;;;14.40;91.10;;;;;;5010623;28;20022;-59
2023/06/24 03:53:19;;;;;;;8.63;6.82;;;14.40;86.50;;;;;;5010276;28;20523;-60
2023/06/24 03:55:45;;;;;;;7.18;6.43;;;14.40;86.50;;;;;;5010583;28;20072;-60
2023/06/24 03:58:10;;;;;;;8.30;6.82;;;14.50;90.60;;;;;;5010166;28;20673;-61
2023/06/24 04:00:40;;;;;;;8.57;7.32;;;14.40;90.20;;;;;;5010476;28;20061;-61
2023/06/24 04:03:07;;;;;;;7.90;6.85;;;14.40;90.30;;;;;;5010439;28;20037;-60
2023/06/24 04:05:33;;;;;;;8.48;6.97;;;14.40;90.70;;;;;;5011203;28;20030;-61
2023/06/24 04:07:59;;;;;;;10.00;7.63;;;14.50;91.00;;;;;;5010274;28;20120;-61
2023/06/24 04:10:25;;;;;;;7.13;6.38;;;14.50;90.00;;;;;;5009875;28;20022;-60
2023/06/24 04:12:51;;;;;;;8.15;7.18;;;14.50;88.20;;;;;;5010434;28;20022;-61
2023/06/24 04:15:16;;;;;;;6.68;5.32;;;14.40;85.60;;;;;;5010608;28;20022;-61
2023/06/24 04:17:42;;;;;;;9.85;7.55;;;14.30;83.60;;;;;;5013591;28;20022;-61
2023/06/24 04:20:08;;;;;;;10.95;6.22;;;14.40;89.40;;;;;;5014065;28;20484;-60
2023/06/24 04:22:35;;;;;;;6.63;5.93;;;14.40;86.10;;;;;;5014460;28;20384;-60
2023/06/24 04:25:01;;;;;;;7.15;6.45;;;14.40;82.40;;;;;;5014497;28;20443;-60
2023/06/24 04:27:27;;;;;;;11.57;6.38;;;14.40;85.40;;;;;;5014002;28;20100;-61
2023/06/24 04:29:52;;;;;;;8.90;6.50;;;14.40;84.50;;;;;;5014100;28;20026;-58
2023/06/24 04:32:18;;;;;;;7.55;6.63;;;14.30;85.00;;;;;;5014330;28;20061;-61
2023/06/24 04:34:43;;;;;;;6.82;6.10;;;14.40;87.30;;;;;;5014031;28;20288;-61
2023/06/24 04:37:09;;;;;;;8.05;6.85;;;14.30;86.20;;;;;;5013923;28;20025;-61
2023/06/24 04:39:35;;;;;;;7.72;6.32;;;14.40;82.30;;;;;;5013922;28;20105;-60
2023/06/24 04:42:00;;;;;;;7.97;7.15;;;14.40;84.30;;;;;;5013991;28;20033;-60
2023/06/24 04:44:26;;;;;;;7.10;6.30;;;14.40;82.80;;;;;;5013818;28;20036;-61
2023/06/24 04:46:52;;;;;;;6.40;5.40;;;14.40;83.00;;;;;;5013883;28;20029;-61
2023/06/24 04:49:18;;;;;;;6.47;4.97;;;14.40;83.90;;;;;;5013459;28;20057;-60
2023/06/24 04:51:44;;;;;;;5.40;4.55;;;14.50;82.30;;;;;;5013640;28;20053;-60
2023/06/24 04:54:12;;;;;;;4.85;4.28;;;14.50;83.90;;;;;;5013676;28;20057;-60
2023/06/24 04:56:38;;;;;;;5.30;4.40;;;14.40;80.80;;;;;;5013777;28;20205;-60
2023/06/24 04:59:03;;;;;;;7.18;4.90;;;14.40;79.60;;;;;;5013626;28;20124;-61
2023/06/24 05:01:29;;;;;;;5.40;4.90;;;14.30;82.20;;;;;;5013069;28;20668;-61
2023/06/24 05:03:54;;;;;;;5.20;4.72;;;14.30;85.60;;;;;;5013618;28;20037;-61
2023/06/24 05:06:20;;;;;;;4.85;4.45;;;14.30;81.60;;;;;;5013383;28;20381;-60
2023/06/24 05:08:46;;;;;;;4.65;4.20;;;14.30;83.50;;;;;;5013261;28;20026;-60
2023/06/24 05:11:11;;;;;;;5.07;4.32;;;14.30;78.70;;;;;;5013072;28;20030;-61
2023/06/24 05:13:37;;;;;;;4.93;4.43;;;14.20;80.90;;;;;;5013411;28;20037;-61
2023/06/24 05:16:03;;;;;;;8.88;4.90;;;14.20;81.10;;;;;;5013394;28;20018;-60
2023/06/24 05:18:28;;;;;;;4.50;4.10;;;14.40;84.30;;;;;;5013154;28;20033;-61
2023/06/24 05:20:54;;;;;;;5.82;4.25;;;14.40;81.80;;;;;;5013117;28;20373;-60
2023/06/24 05:23:20;;;;;;;6.15;4.07;;;14.40;82.60;;;;;;5011748;28;20060;-61
2023/06/24 05:25:45;;;;;;;3.83;3.42;;;14.30;74.50;;;;;;5013200;28;20033;-61
2023/06/24 05:28:11;;;;;;;4.70;3.97;;;14.30;74.60;;;;;;5012085;28;20030;-61
2023/06/24 05:30:37;;;;;;;4.00;3.70;;;14.30;77.70;;;;;;5012933;28;20030;-61
2023/06/24 05:33:02;;;;;;;3.60;3.30;;;14.30;82.20;;;;;;5013059;28;20014;-61
2023/06/24 05:35:28;;;;;;;4.47;3.70;;;14.40;75.70;;;;;;5012854;28;20022;-60
2023/06/24 05:37:53;;;;;;;4.90;4.30;;;14.50;78.70;;;;;;5013162;28;20357;-60
2023/06/24 05:40:19;;;;;;;4.40;4.00;;;14.50;75.80;;;;;;5012605;28;20053;-61
2023/06/24 05:42:45;;;;;;;5.53;5.03;;;14.50;75.50;;;;;;5012840;28;20068;-61
2023/06/24 05:45:10;;;;;;;5.25;4.65;;;14.50;72.40;;;;;;5011433;28;20057;-60
2023/06/24 05:47:37;;;;;;;5.65;5.00;;;14.50;78.70;;;;;;5012660;28;20026;-60
2023/06/24 05:50:04;;;;;;;8.40;5.00;;;14.60;78.90;;;;;;5011069;28;20026;-60
2023/06/24 05:52:29;;;;;;;5.90;5.30;;;14.60;79.20;;;;;;5012623;28;20060;-60
2023/06/24 05:58:17;;;;;;;8.68;6.45;;;14.60;75.10;;;;;;5012625;28;20095;-60
2023/06/24 06:00:42;;;;;;;7.95;6.47;;;14.60;77.80;;;;;;5012559;28;20029;-60
2023/06/24 06:03:09;;;;;;;6.82;6.13;;;14.50;82.00;;;;;;5012462;28;20038;-60
2023/06/24 06:05:34;;;;;;;6.40;5.25;;;14.50;80.40;;;;;;5012319;28;20026;-58
2023/06/24 06:08:00;;;;;;;6.93;6.20;;;14.50;77.40;;;;;;5012295;28;20030;-60
2023/06/24 06:10:26;;;;;;;6.57;5.93;;;14.50;78.80;;;;;;5011955;28;20036;-60
2023/06/24 06:12:53;;;;;;;6.72;5.90;;;14.40;80.50;;;;;;5010803;28;20107;-60
2023/06/24 06:15:19;;;;;;;8.40;7.00;;;14.40;85.80;;;;;;5012129;28;20378;-60
2023/06/24 06:17:46;;;;;;;6.55;5.78;;;14.50;83.50;;;;;;5012163;28;20044;-60
2023/06/24 06:20:12;;;;;;;7.38;6.20;;;14.50;81.20;;;;;;5011910;28;20492;-59
2023/06/24 06:22:38;;;;;;;8.77;7.50;;;14.50;83.70;;;;;;5012174;28;20064;-60
2023/06/24 06:25:07;;;;;;;8.70;7.30;;;14.50;86.90;;;;;;5012112;28;20025;-60
2023/06/24 06:27:33;;;;;;;11.00;7.53;;;14.50;82.70;;;;;;5011832;28;20398;-60
2023/06/24 06:29:59;;;;;;;9.98;7.22;;;14.50;83.90;;;;;;5011632;28;20318;-60
2023/06/24 06:32:24;;;;;;;9.73;6.82;;;14.60;82.60;;;;;;5011602;28;20036;-60
2023/06/24 06:34:50;;;;;;;11.52;6.20;;;14.60;83.40;;;;;;5012102;28;20029;-60
2023/06/24 06:37:16;;;;;;;6.53;5.80;;;14.70;80.90;;;;;;5012969;28;20036;-60
2023/06/24 06:39:41;;;;;;;6.75;5.57;;;14.70;75.10;;;;;;5011873;28;20065;-61
2023/06/24 06:42:07;;;;;;;6.78;6.07;;;14.70;76.90;;;;;;5012788;28;20033;-60
2023/06/24 06:44:33;;;;;;;6.75;6.10;;;14.80;74.80;;;;;;5012992;28;20156;-60
2023/06/24 06:46:59;;;;;;;7.97;6.82;;;14.80;74.80;;;;;;5012812;28;20022;-60
2023/06/24 06:49:24;;;;;;;9.48;6.00;;;14.80;75.10;;;;;;5012455;28;20065;-61
2023/06/24 06:51:51;;;;;;;6.78;6.07;;;14.80;78.40;;;;;;5012404;28;20113;-61
2023/06/24 06:54:17;;;;;;;6.90;6.30;;;14.80;75.40;;;;;;5012342;28;20497;-60
2023/06/24 06:56:43;;;;;;;11.25;6.18;;;14.80;72.30;;;;;;5012647;28;20105;-60
2023/06/24 06:59:08;;;;;;;7.28;6.00;;;14.70;74.20;;;;;;5012100;28;20026;-60
2023/06/24 07:01:34;;;;;;;6.85;6.20;;;14.80;78.80;;;;;;5010441;28;20034;-60
2023/06/24 07:03:59;;;;;;;7.20;6.50;;;14.70;74.10;;;;;;5012125;28;20026;-61
2023/06/24 07:06:25;;;;;;;8.35;6.90;;;14.80;70.80;;;;;;5011356;28;20038;-59
2023/06/24 07:08:51;;;;;;;12.13;5.88;;;14.80;73.40;;;;;;5012141;28;20033;-60
2023/06/24 07:11:16;;;;;;;8.38;7.07;;;14.90;75.70;;;;;;5012257;28;20022;-60
2023/06/24 07:13:42;;;;;;;11.50;7.65;;;14.90;72.00;;;;;;5011370;28;20085;-60
2023/06/24 07:16:08;;;;;;;71.55;41.55;;;15.00;82.30;;;;;;5010603;28;20531;-59
2023/06/24 07:18:33;;;;;;;7.78;6.97;;;15.00;78.30;;;;;;5011057;28;20021;-60
2023/06/24 07:21:00;;;;;;;12.00;7.55;;;15.10;78.20;;;;;;5011129;28;20565;-60
2023/06/24 07:23:25;;;;;;;8.07;7.28;;;15.20;73.50;;;;;;5010974;28;20033;-60
2023/06/24 07:25:51;;;;;;;7.10;6.40;;;15.30;72.60;;;;;;5010889;28;20029;-59
2023/06/24 07:28:17;;;;;;;8.65;7.50;;;15.30;65.40;;;;;;5011636;28;20092;-60
2023/06/24 07:30:43;;;;;;;9.27;7.88;;;15.40;64.20;;;;;;5012224;28;20030;-60
2023/06/24 07:33:09;;;;;;;8.80;6.95;;;15.40;59.40;;;;;;5012155;28;20022;-58
2023/06/24 07:35:34;;;;;;;9.02;7.13;;;15.50;57.10;;;;;;5011959;28;20033;-60
2023/06/24 07:38:01;;;;;;;14.07;8.35;;;15.50;49.70;;;;;;5012050;28;20368;-59
2023/06/24 07:40:26;;;;;;;8.40;7.28;;;15.50;63.10;;;;;;5012012;28;20065;-59
2023/06/24 07:42:53;;;;;;;9.73;7.32;;;15.50;53.30;;;;;;5011955;28;20422;-59
2023/06/24 07:45:19;;;;;;;12.85;7.43;;;15.50;54.30;;;;;;5012069;28;20539;-59
2023/06/24 07:47:45;;;;;;;8.25;7.10;;;15.50;45.90;;;;;;5011804;28;20022;-59
2023/06/24 07:50:10;;;;;;;10.73;8.20;;;15.60;52.20;;;;;;5011714;28;20029;-60
2023/06/24 07:52:37;;;;;;;8.70;7.78;;;15.50;64.10;;;;;;5011582;28;20022;-55
2023/06/24 07:55:03;;;;;;;10.15;7.50;;;15.60;61.30;;;;;;5011774;28;20053;-60
2023/06/24 07:57:29;;;;;;;7.93;7.13;;;15.70;55.00;;;;;;5011801;28;20017;-59
2023/06/24 07:59:55;;;;;;;9.30;7.93;;;15.70;63.40;;;;;;5011824;28;20416;-60
2023/06/24 08:02:20;;;;;;;9.25;8.30;;;15.60;56.20;;;;;;5011654;28;20080;-60
2023/06/24 08:04:46;;;;;;;11.38;7.35;;;15.80;62.60;;;;;;5011762;28;20034;-60
2023/06/24 08:07:12;;;;;;;10.55;7.32;;;15.90;35.00;;;;;;5011481;28;20080;-60
2023/06/24 08:09:38;;;;;;;8.10;6.72;;;16.00;38.60;;;;;;5011152;28;20117;-59
2023/06/24 08:12:04;;;;;;;8.10;6.60;;;16.10;32.40;;;;;;5010901;28;20030;-60
2023/06/24 08:14:30;;;;;;;7.85;6.45;;;16.00;23.40;;;;;;5011210;28;20046;-60
2023/06/24 08:16:55;;;;;;;9.02;6.45;;;15.90;17.90;;;;;;5011869;28;20360;-59
2023/06/24 08:19:21;;;;;;;6.95;6.13;;;15.80;23.10;;;;;;5011568;28;20026;-59
2023/06/24 08:21:46;;;;;;;7.45;6.57;;;15.80;32.90;;;;;;5011705;28;20117;-60
2023/06/24 08:24:12;;;;;;;14.10;7.03;;;15.80;34.20;;;;;;5011250;28;20091;-60
2023/06/24 08:26:38;;;;;;;11.07;6.93;;;15.90;44.30;;;;;;5011725;28;20037;-59
2023/06/24 08:29:03;;;;;;;10.90;8.27;;;15.90;20.20;;;;;;5011368;28;20029;-59
2023/06/24 08:31:29;;;;;;;7.93;7.22;;;16.00;40.80;;;;;;5015609;28;20030;-60
2023/06/24 08:33:58;;;;;;;13.65;9.20;;;16.00;37.10;;;;;;5011216;28;20384;-60
2023/06/24 08:36:27;;;;;;;10.73;9.63;;;16.00;38.40;;;;;;5011177;28;20330;-60
2023/06/24 08:38:52;;;;;;;11.50;9.98;;;16.10;48.20;;;;;;5011463;28;20041;-60
2023/06/24 08:41:18;;;;;;;11.60;8.77;;;16.10;38.90;;;;;;5010231;28;20024;-60
2023/06/24 08:43:44;;;;;;;11.50;9.32;;;16.20;38.40;;;;;;5011441;28;20057;-60
2023/06/24 08:46:10;;;;;;;10.05;8.07;;;16.20;35.70;;;;;;5011428;28;20675;-61
2023/06/24 08:48:41;;;;;;;8.73;7.88;;;16.10;14.90;;;;;;5011426;28;20037;-59
2023/06/24 08:51:13;;;;;;;10.75;6.88;;;16.30;23.90;;;;;;5010437;28;20045;-60
2023/06/24 08:53:41;;;;;;;8.30;6.30;;;16.40;8.00;;;;;;5010208;28;20042;-60
2023/06/24 08:56:06;;;;;;;7.32;6.57;;;16.40;21.30;;;;;;5010059;28;20029;-59
2023/06/24 08:58:33;;;;;;;8.38;6.93;;;16.40;11.00;;;;;;5010112;28;20100;-60
2023/06/24 09:00:59;;;;;;;11.25;6.55;;;16.40;4.90;;;;;;5009964;28;20034;-59
2023/06/24 09:03:24;;;;;;;8.40;6.88;;;16.40;3.60;;;;;;5010129;28;20027;-59
2023/06/24 09:05:50;;;;;;;8.20;6.22;;;16.30;20.60;;;;;;5014131;28;20104;-60
2023/06/24 09:08:16;;;;;;;10.13;6.05;;;16.30;9.50;;;;;;5014686;28;20030;-60
2023/06/24 09:10:41;;;;;;;9.95;6.40;;;16.30;1.50;;;;;;5014899;28;20109;-60
2023/06/24 09:13:07;;;;;;;6.32;5.32;;;16.30;2.30;;;;;;5014498;28;20033;-59
2023/06/24 09:15:37;;;;;;;6.32;5.03;;;16.30;1.00;;;;;;5014659;28;20025;-60
2023/06/24 09:18:04;;;;;;;9.70;5.63;;;16.30;15.90;;;;;;5014396;28;20022;-60
2023/06/24 09:20:38;;;;;;;6.10;5.50;;;16.40;32.30;;;;;;5014593;28;20125;-60
2023/06/24 09:23:04;;;;;;;7.30;6.05;;;16.60;14.60;;;;;;5013444;28;20034;-60
2023/06/24 09:25:30;;;;;;;10.90;5.95;;;16.70;33.00;;;;;;5014513;28;20041;-60
2023/06/24 09:28:03;;;;;;;6.75;5.53;;;16.80;1.00;;;;;;5014147;28;20033;-60
2023/06/24 09:30:29;;;;;;;8.98;5.72;;;16.90;1.00;;;;;;5014051;28;20421;-60
2023/06/24 09:32:55;;;;;;;7.43;5.95;;;16.90;1.00;;;;;;5014260;28;20165;-60
2023/06/24 09:35:22;;;;;;;8.65;5.85;;;17.10;1.00;;;;;;5012981;28;20028;-60
2023/06/24 09:37:56;;;;;;;8.18;5.80;;;17.30;1.00;;;;;;5014355;28;20034;-59
2023/06/24 09:40:40;;;;;;;7.63;5.72;;;17.30;1.00;;;;;;5013612;28;20133;-60
2023/06/24 09:43:06;;;;;;;7.93;5.45;;;17.60;1.00;;;;;;5014231;28;20030;-61
2023/06/24 09:45:32;;;;;;;7.63;6.07;;;17.90;1.00;;;;;;5014009;28;20030;-60
2023/06/24 09:47:58;;;;;;;8.65;5.55;;;18.10;1.00;;;;;;5014580;28;20022;-60
2023/06/24 09:50:23;;;;;;;10.10;5.47;;;17.90;1.00;;;;;;5014004;28;20049;-58
2023/06/24 09:52:52;;;;;;;5.75;5.25;;;18.30;1.00;;;;;;5013763;28;20084;-59
2023/06/24 09:55:18;;;;;;;5.35;4.85;;;18.50;1.00;;;;;;5013729;28;20372;-60
2023/06/24 09:58:16;;;;;;;7.50;4.60;;;18.60;1.00;;;;;;5013908;28;20018;-60
2023/06/24 10:00:42;;;;;;;6.00;5.20;;;18.80;1.00;;;;;;5013809;28;20085;-60
2023/06/24 10:03:08;;;;;;;6.57;4.53;;;18.50;99.90;;;;;;5013561;28;20060;-60
2023/06/24 10:05:34;;;;;;;5.88;4.75;;;18.90;99.90;;;;;;5013813;28;20050;-61
2023/06/24 10:07:59;;;;;;;6.13;5.03;;;19.10;99.90;;;;;;5013446;28;20056;-60
2023/06/24 10:10:25;;;;;;;7.80;6.65;;;19.10;99.90;;;;;;5013357;28;20384;-60
2023/06/24 10:12:51;;;;;;;5.72;4.80;;;19.00;99.90;;;;;;5013526;28;20026;-60
2023/06/24 10:15:16;;;;;;;6.53;5.45;;;19.00;99.90;;;;;;5011463;28;20125;-60
2023/06/24 10:17:42;;;;;;;9.40;4.82;;;18.80;99.90;;;;;;5012830;28;20076;-59
2023/06/24 10:20:08;;;;;;;7.35;4.80;;;18.70;99.90;;;;;;5012305;28;20697;-58
2023/06/24 10:22:36;;;;;;;6.43;4.57;;;19.00;99.90;;;;;;4994071;28;20050;-57
2023/06/24 10:25:05;;;;;;;6.50;5.13;;;19.20;99.90;;;;;;4999323;28;20029;-60
2023/06/24 10:27:42;;;;;;;5.03;4.13;;;19.50;99.90;;;;;;5012871;28;20049;-56
2023/06/24 10:30:08;;;;;;;8.60;4.35;;;19.60;94.70;;;;;;5013215;28;20667;-61
2023/06/24 10:32:42;;;;;;;6.85;5.07;;;19.50;99.90;;;;;;5013183;28;20037;-60
2023/06/24 10:35:29;;;;;;;5.15;4.65;;;19.60;99.90;;;;;;5025381;28;20096;-59
2023/06/24 10:38:01;;;;;;;8.02;5.40;;;19.70;99.90;;;;;;5007465;28;20029;-60
2023/06/24 10:40:43;;;;;;;6.40;4.55;;;19.70;99.90;;;;;;5012625;28;20029;-60
2023/06/24 10:43:24;;;;;;;7.90;4.25;;;19.90;99.90;;;;;;5013077;28;20080;-60
2023/06/24 10:45:51;;;;;;;6.20;4.45;;;19.60;1.00;;;;;;5012503;28;20119;-60
2023/06/24 10:48:19;;;;;;;4.10;3.58;;;19.40;1.00;;;;;;4998618;28;20033;-60
2023/06/24 10:50:45;;;;;;;5.93;4.53;;;19.60;1.00;;;;;;5024800;28;20416;-60
2023/06/24 10:53:12;;;;;;;5.43;3.95;;;19.40;1.00;;;;;;5000096;28;20054;-60
2023/06/24 10:55:39;;;;;;;5.68;5.05;;;19.30;1.00;;;;;;4983479;28;20034;-60
2023/06/24 10:58:13;;;;;;;4.32;3.92;;;19.10;1.00;;;;;;4982822;28;20109;-59
2023/06/24 11:00:40;;;;;;;3.90;3.50;;;19.10;1.00;;;;;;4982544;28;20465;-59
2023/06/24 11:03:10;;;;;;;4.03;3.63;;;19.60;1.00;;;;;;4982613;28;20030;-60
2023/06/24 11:05:39;;;;;;;8.13;3.45;;;19.60;1.00;;;;;;4982636;28;20125;-60
2023/06/24 11:08:06;;;;;;;4.35;3.40;;;19.40;99.90;;;;;;4981569;28;20043;-59
2023/06/24 11:10:31;;;;;;;5.32;4.03;;;19.30;99.90;;;;;;4982591;28;20054;-60
2023/06/24 11:12:58;;;;;;;4.30;3.90;;;19.20;99.90;;;;;;4983479;28;20406;-58
2023/06/24 11:15:24;;;;;;;6.57;3.20;;;19.10;99.90;;;;;;4981607;28;20041;-59
2023/06/24 11:17:52;;;;;;;5.60;3.67;;;19.10;1.00;;;;;;4982423;28;20038;-58
2023/06/24 11:20:17;;;;;;;6.43;3.45;;;19.10;1.00;;;;;;4982949;28;20019;-60
2023/06/24 11:22:44;;;;;;;6.88;3.33;;;19.20;1.00;;;;;;4983394;28;20061;-59
2023/06/24 11:25:18;;;;;;;4.30;3.90;;;19.30;1.00;;;;;;4982260;28;20049;-60
2023/06/24 11:27:44;;;;;;;4.68;4.18;;;19.30;1.00;;;;;;4981026;28;20057;-60
2023/06/24 11:30:11;;;;;;;7.30;4.00;;;19.30;1.00;;;;;;4982266;28;22337;-58
2023/06/24 11:32:38;;;;;;;4.20;3.17;;;19.40;1.00;;;;;;4983123;28;20081;-60
2023/06/24 11:35:08;;;;;;;4.82;4.43;;;19.20;1.00;;;;;;4981661;28;20022;-59
2023/06/24 11:37:34;;;;;;;6.65;3.75;;;19.30;1.00;;;;;;4982071;28;20109;-59
2023/06/24 11:40:04;;;;;;;5.18;3.97;;;19.30;1.00;;;;;;4980194;28;20819;-60
2023/06/24 11:42:30;;;;;;;3.83;3.50;;;19.10;1.00;;;;;;4980809;28;20482;-60
2023/06/24 11:45:03;;;;;;;3.45;3.15;;;19.20;1.00;;;;;;4982203;28;20121;-60
2023/06/24 11:47:36;;;;;;;5.65;3.63;;;19.40;1.00;;;;;;4981475;28;20168;-60
2023/06/24 11:50:04;;;;;;;4.50;3.55;;;19.30;1.00;;;;;;4982300;28;20061;-57
2023/06/24 11:52:35;;;;;;;4.10;3.33;;;19.30;1.00;;;;;;4981058;28;21548;-60
2023/06/24 11:55:02;;;;;;;4.20;3.05;;;19.50;1.00;;;;;;4982796;28;20065;-60
2023/06/24 11:58:06;;;;;;;3.35;3.03;;;19.80;99.90;;;;;;4981440;28;20104;-59
2023/06/24 12:00:32;;;;;;;4.38;3.25;;;20.20;99.90;;;;;;4959721;28;20077;-60
2023/06/24 12:03:03;;;;;;;5.40;3.17;;;20.40;99.90;;;;;;4983387;28;20681;-60
2023/06/24 12:05:31;;;;;;;5.97;3.80;;;20.60;99.90;;;;;;4982065;28;21083;-59
2023/06/24 12:08:05;;;;;;;3.83;3.10;;;20.70;1.00;;;;;;4981442;28;20540;-57
2023/06/24 12:10:33;;;;;;;4.53;3.13;;;20.80;1.00;;;;;;4981195;28;20386;-59
2023/06/24 12:13:02;;;;;;;8.52;3.10;;;21.00;99.90;;;;;;4981932;28;20049;-60
2023/06/24 12:15:28;;;;;;;3.25;2.90;;;21.00;1.00;;;;;;4981898;28;20058;-59
2023/06/24 12:17:54;;;;;;;4.32;3.70;;;21.00;99.90;;;;;;4980849;28;20035;-60
2023/06/24 12:20:21;;;;;;;3.97;3.25;;;21.20;99.90;;;;;;4981319;28;20045;-59
2023/06/24 12:22:48;;;;;;;6.13;3.55;;;20.90;99.90;;;;;;4982855;28;20474;-59
2023/06/24 12:25:14;;;;;;;3.60;3.28;;;20.90;99.90;;;;;;4980774;28;20034;-60
2023/06/24 12:27:41;;;;;;;10.93;3.58;;;20.80;1.00;;;;;;4981477;28;20484;-60
2023/06/24 12:30:08;;;;;;;5.40;3.25;;;21.10;1.00;;;;;;4980822;28;20034;-59
2023/06/24 12:32:33;;;;;;;6.60;3.17;;;21.30;1.00;;;;;;4983266;28;20058;-60
2023/06/24 12:34:59;;;;;;;5.70;3.33;;;21.40;99.90;;;;;;4982674;28;20058;-60
2023/06/24 12:37:24;;;;;;;4.65;3.00;;;21.60;99.90;;;;;;4982595;28;20034;-60
2023/06/24 12:39:53;;;;;;;3.53;3.22;;;22.00;99.90;;;;;;4985189;28;20105;-60
2023/06/24 12:42:18;;;;;;;4.53;3.08;;;22.00;96.90;;;;;;4985315;28;20031;-59
2023/06/24 12:44:44;;;;;;;6.03;3.38;;;22.30;57.90;;;;;;4985020;28;20046;-59
2023/06/24 12:47:10;;;;;;;4.25;3.17;;;22.30;91.80;;;;;;4985073;28;20034;-59
2023/06/24 12:49:35;;;;;;;4.72;3.03;;;22.70;1.00;;;;;;4985054;28;20114;-60
2023/06/24 12:52:02;;;;;;;5.47;3.92;;;23.10;99.90;;;;;;4984370;28;20041;-61
2023/06/24 12:54:27;;;;;;;3.20;2.53;;;23.20;99.90;;;;;;4985090;28;20049;-60
2023/06/24 12:56:53;;;;;;;8.07;3.55;;;23.60;99.90;;;;;;4985176;28;20030;-61